Weather at Marj al-Sultan Heliport (North)

Public forecast

Using degrees Celsius for public forecast. Weather courtesy of forecast.io.

Closest aviation weather report (METAR) to Marj al-Sultan Heliport (North)

Closest report is Damascus International Airport, 5.9 nm (10.8 km) SSE.

2024/05/30 21:00 (retrieved 29 minutes ago)

OSDI 302100Z 24011KT CAVOK 17/10 Q1014

Closest aviation forecast (TAF) to Marj al-Sultan Heliport (North)

Forecast is more than 6 hours old.

Closest forecast is Damascus International Airport, 5.9 nm (10.8 km) SSE.

2024/05/30 12:12 (retrieved 9 hours ago)

TAF OSDI 301100Z 3012/3118 22010KT 8000 FEW030 TEMPO 3012/3118 22015G25KT 8000 FEW030